Coolidge, GA

5:46 PM EST on November 11, 2019 (GMT -0500)
Temple Baptist Church | | Change Station
Active Advisory: Freeze Watch

Elev 312 ft 31.07 °N, 83.82 °W | Updated 21 seconds ago

Clear
Clear
65.8 °F
Feels Like 65.8 °F
N
0
Wind Variable Wind from WSW
Gusts 0.0 mph

Today
High -- | Low -- °F
--% Chance of Precip.
Yesterday
High -- | Low -- °F
Precip. -- in
Pressure 30.07 in
Visibility 10.0 miles
Clouds Clear
Dew Point 58 °F
Humidity 77%
Rainfall 0.00 in
Snow Depth Not available.
6:58 AM 5:39 PM
Full, 100% visible
METAR KMGR 112235Z AUTO 00000KT 10SM CLR 19/14 A3007 RMK AO2
Pressure 30.07 in
Visibility 10.0 miles
Clouds Clear
Dew Point 58 °F
Humidity 77%
Rainfall 0.00 in
Snow Depth Not available.
6:58 AM 5:39 PM
Full, 100% visible
METAR KMGR 112235Z AUTO 00000KT 10SM CLR 19/14 A3007 RMK AO2

Get Your Daily Forecast Email!

Thanks for signing up!

Be on the lookout for a verification email in your inbox.

You'll start receiving severe weather alerts in your inbox..

×

10-Day Weather Forecast

Almanac

Astronomy

Nov. 11, 2019 Rise Set
Actual Time
Civil Twilight
Nautical Twilight
Astronomical Twilight
Moon
Length of Visible Light
Length of Day
Tomorrow will be .
, % of the Moon is Illuminated

Today's Extremes

State Highs State Lows

Community

WunderPhotos

Category 6

Welcome to Category 6. This is the collective home for Weather Underground's featured writeups by Dr. Jeff Masters (right), Bob Henson (left), Chris Burt, and other regular contributors.

Nearby

Air Quality

  Air Quality AQ Index Pollutant
Not available.

Snow Depth

Station Depth Elevation

Earthquake Activity

City Distance Mag. Time & Date
Minimum magnitude displayed is 2.5.

Coastal Water Temperatures

Place Temperature

Stations

Nearby Weather Stations

Station Location Temp. Windchill Dew Point Humidity Wind Precip. Elev Updated Type
                   

Watches & Warnings

Freeze Watch
Issued: 1:06 PM CST Nov. 11, 2019 – National Weather Service

... Freeze watch in effect from Tuesday evening through Wednesday
morning...

The National Weather Service in Tallahassee has issued a freeze
watch, which is in effect from Tuesday evening through Wednesday
morning.

* Temperature... lows 27 to 32.

* Impacts... freeze conditions could kill crops and other
sensitive vegetation.

Precautionary/preparedness actions...

A freeze watch means sub-freezing temperatures are possible.
These conditions could kill crops and other sensitive vegetation.



Dvd